sensor_id;sensor_type;location;lat;lon;timestamp;pressure;altitude;pressure_sealevel;temperature;humidity
1736;BME280;865;53.672;10.250;2022-07-23T00:01:09;101386.41;;;15.16;84.10
1736;BME280;865;53.672;10.250;2022-07-23T00:03:35;101392.34;;;15.22;84.10
1736;BME280;865;53.672;10.250;2022-07-23T00:06:01;101388.00;;;15.23;84.59
1736;BME280;865;53.672;10.250;2022-07-23T00:08:28;101388.19;;;15.15;84.48
1736;BME280;865;53.672;10.250;2022-07-23T00:10:54;101391.91;;;15.08;84.85
1736;BME280;865;53.672;10.250;2022-07-23T00:13:21;101391.03;;;15.08;84.98
1736;BME280;865;53.672;10.250;2022-07-23T00:15:47;101374.50;;;15.04;85.32
1736;BME280;865;53.672;10.250;2022-07-23T00:18:14;101376.56;;;15.24;84.92
1736;BME280;865;53.672;10.250;2022-07-23T00:20:40;101368.63;;;15.25;84.88
1736;BME280;865;53.672;10.250;2022-07-23T00:23:06;101369.81;;;15.14;85.21
1736;BME280;865;53.672;10.250;2022-07-23T00:25:34;101357.41;;;15.20;85.33
1736;BME280;865;53.672;10.250;2022-07-23T00:28:01;101356.66;;;15.15;84.77
1736;BME280;865;53.672;10.250;2022-07-23T00:30:29;101358.63;;;15.07;85.63
1736;BME280;865;53.672;10.250;2022-07-23T00:32:58;101364.75;;;15.08;85.71
1736;BME280;865;53.672;10.250;2022-07-23T00:35:28;101351.66;;;15.06;85.66
1736;BME280;865;53.672;10.250;2022-07-23T00:37:55;101350.72;;;15.09;86.24
1736;BME280;865;53.672;10.250;2022-07-23T00:40:21;101352.69;;;15.00;86.06
1736;BME280;865;53.672;10.250;2022-07-23T00:42:48;101353.56;;;15.01;86.58
1736;BME280;865;53.672;10.250;2022-07-23T00:45:15;101359.59;;;15.04;86.55
1736;BME280;865;53.672;10.250;2022-07-23T00:47:41;101358.81;;;15.01;86.35
1736;BME280;865;53.672;10.250;2022-07-23T00:50:09;101355.44;;;14.96;86.58
1736;BME280;865;53.672;10.250;2022-07-23T00:52:37;101350.34;;;14.91;86.54
1736;BME280;865;53.672;10.250;2022-07-23T00:55:05;101352.38;;;14.80;87.25
1736;BME280;865;53.672;10.250;2022-07-23T00:57:32;101346.22;;;14.81;87.81
1736;BME280;865;53.672;10.250;2022-07-23T00:59:59;101343.50;;;14.84;87.89
1736;BME280;865;53.672;10.250;2022-07-23T01:02:27;101347.28;;;14.75;87.31
1736;BME280;865;53.672;10.250;2022-07-23T01:04:54;101338.50;;;14.75;87.55
1736;BME280;865;53.672;10.250;2022-07-23T01:07:20;101346.47;;;14.72;87.89
1736;BME280;865;53.672;10.250;2022-07-23T01:09:48;101353.81;;;14.61;88.78
1736;BME280;865;53.672;10.250;2022-07-23T01:12:15;101353.81;;;14.61;89.70
1736;BME280;865;53.672;10.250;2022-07-23T01:14:41;101357.38;;;14.58;89.67
1736;BME280;865;53.672;10.250;2022-07-23T01:17:08;101347.88;;;14.52;89.98
1736;BME280;865;53.672;10.250;2022-07-23T01:19:34;101347.84;;;14.54;90.15
1736;BME280;865;53.672;10.250;2022-07-23T01:22:04;101348.69;;;14.54;89.92
1736;BME280;865;53.672;10.250;2022-07-23T01:24:30;101341.78;;;14.50;89.89
1736;BME280;865;53.672;10.250;2022-07-23T01:26:57;101338.31;;;14.48;89.96
1736;BME280;865;53.672;10.250;2022-07-23T01:29:23;101330.41;;;14.50;90.32
1736;BME280;865;53.672;10.250;2022-07-23T01:31:50;101329.66;;;14.46;90.69
1736;BME280;865;53.672;10.250;2022-07-23T01:34:16;101330.59;;;14.44;91.23
1736;BME280;865;53.672;10.250;2022-07-23T01:36:43;101339.28;;;14.46;90.95
1736;BME280;865;53.672;10.250;2022-07-23T01:39:09;101340.25;;;14.42;90.78
1736;BME280;865;53.672;10.250;2022-07-23T01:41:36;101330.75;;;14.38;91.46
1736;BME280;865;53.672;10.250;2022-07-23T01:44:03;101342.38;;;14.27;91.38
1736;BME280;865;53.672;10.250;2022-07-23T01:46:29;101334.56;;;14.24;91.35
1736;BME280;865;53.672;10.250;2022-07-23T01:48:56;101340.75;;;14.22;91.31
1736;BME280;865;53.672;10.250;2022-07-23T01:51:22;101330.34;;;14.19;90.96
1736;BME280;865;53.672;10.250;2022-07-23T01:53:49;101328.53;;;14.22;91.34
1736;BME280;865;53.672;10.250;2022-07-23T01:56:15;101325.00;;;14.22;91.01
1736;BME280;865;53.672;10.250;2022-07-23T01:58:42;101323.34;;;14.19;91.23
1736;BME280;865;53.672;10.250;2022-07-23T02:01:08;101326.97;;;14.13;91.07
1736;BME280;865;53.672;10.250;2022-07-23T02:03:35;101324.38;;;14.13;91.23
1736;BME280;865;53.672;10.250;2022-07-23T02:06:01;101317.22;;;14.19;91.76
1736;BME280;865;53.672;10.250;2022-07-23T02:08:27;101316.34;;;14.20;91.46
1736;BME280;865;53.672;10.250;2022-07-23T02:10:54;101313.72;;;14.20;91.17
1736;BME280;865;53.672;10.250;2022-07-23T02:13:21;101311.16;;;14.17;90.87
1736;BME280;865;53.672;10.250;2022-07-23T02:15:47;101307.72;;;14.14;91.07
1736;BME280;865;53.672;10.250;2022-07-23T02:18:14;101306.16;;;14.07;91.38
1736;BME280;865;53.672;10.250;2022-07-23T02:20:41;101304.16;;;14.17;90.76
1736;BME280;865;53.672;10.250;2022-07-23T02:23:08;101305.75;;;14.23;91.20
1736;BME280;865;53.672;10.250;2022-07-23T02:25:34;101298.72;;;14.25;90.57
1736;BME280;865;53.672;10.250;2022-07-23T02:28:01;101309.16;;;14.26;90.65
1736;BME280;865;53.672;10.250;2022-07-23T02:30:27;101303.22;;;14.20;90.01
1736;BME280;865;53.672;10.250;2022-07-23T02:32:54;101303.16;;;14.21;89.77
1736;BME280;865;53.672;10.250;2022-07-23T02:35:20;101289.94;;;14.26;89.98
1736;BME280;865;53.672;10.250;2022-07-23T02:37:46;101294.19;;;14.30;89.75
1736;BME280;865;53.672;10.250;2022-07-23T02:40:14;101299.44;;;14.30;89.24
1736;BME280;865;53.672;10.250;2022-07-23T02:42:40;101296.97;;;14.24;88.44
1736;BME280;865;53.672;10.250;2022-07-23T02:45:07;101296.97;;;14.24;89.27
1736;BME280;865;53.672;10.250;2022-07-23T02:47:34;101302.22;;;14.24;88.88
1736;BME280;865;53.672;10.250;2022-07-23T02:50:00;101301.38;;;14.22;89.36
1736;BME280;865;53.672;10.250;2022-07-23T02:52:27;101301.59;;;14.14;89.76
1736;BME280;865;53.672;10.250;2022-07-23T02:54:53;101304.31;;;14.11;90.30
1736;BME280;865;53.672;10.250;2022-07-23T02:57:19;101300.75;;;14.13;90.26
1736;BME280;865;53.672;10.250;2022-07-23T02:59:46;101296.34;;;14.14;89.50
1736;BME280;865;53.672;10.250;2022-07-23T03:02:12;101285.03;;;14.12;88.91
1736;BME280;865;53.672;10.250;2022-07-23T03:04:39;101292.34;;;13.99;90.40
1736;BME280;865;53.672;10.250;2022-07-23T03:07:08;101287.94;;;14.01;90.69
1736;BME280;865;53.672;10.250;2022-07-23T03:09:34;101288.03;;;13.98;91.07
1736;BME280;865;53.672;10.250;2022-07-23T03:12:01;101280.22;;;13.95;91.23
1736;BME280;865;53.672;10.250;2022-07-23T03:14:27;101274.84;;;14.00;91.03
1736;BME280;865;53.672;10.250;2022-07-23T03:16:55;101281.56;;;14.11;90.72
1736;BME280;865;53.672;10.250;2022-07-23T03:19:21;101272.94;;;14.06;90.75
1736;BME280;865;53.672;10.250;2022-07-23T03:21:49;101269.97;;;14.20;90.04
1736;BME280;865;53.672;10.250;2022-07-23T03:24:15;101269.09;;;14.20;89.64
1736;BME280;865;53.672;10.250;2022-07-23T03:26:44;101279.09;;;14.05;89.85
1736;BME280;865;53.672;10.250;2022-07-23T03:29:11;101280.78;;;14.08;90.59
1736;BME280;865;53.672;10.250;2022-07-23T03:31:37;101276.22;;;14.14;90.89
1736;BME280;865;53.672;10.250;2022-07-23T03:34:04;101275.38;;;14.12;90.37
1736;BME280;865;53.672;10.250;2022-07-23T03:36:30;101279.69;;;14.15;90.03
1736;BME280;865;53.672;10.250;2022-07-23T03:38:57;101278.69;;;14.21;90.57
1736;BME280;865;53.672;10.250;2022-07-23T03:41:26;101283.03;;;14.22;90.58
1736;BME280;865;53.672;10.250;2022-07-23T03:43:53;101284.78;;;14.21;90.44
1736;BME280;865;53.672;10.250;2022-07-23T03:46:19;101284.84;;;14.20;90.81
1736;BME280;865;53.672;10.250;2022-07-23T03:48:45;101285.72;;;14.19;90.90
1736;BME280;865;53.672;10.250;2022-07-23T03:51:12;101284.69;;;14.26;90.95
1736;BME280;865;53.672;10.250;2022-07-23T03:53:38;101275.97;;;14.24;91.24
1736;BME280;865;53.672;10.250;2022-07-23T03:56:05;101270.56;;;14.30;90.17
1736;BME280;865;53.672;10.250;2022-07-23T03:58:31;101283.59;;;14.33;90.20
1736;BME280;865;53.672;10.250;2022-07-23T04:00:57;101294.03;;;14.36;90.34
1736;BME280;865;53.672;10.250;2022-07-23T04:03:24;101288.91;;;14.31;89.94
1736;BME280;865;53.672;10.250;2022-07-23T04:05:50;101297.47;;;14.38;90.15
1736;BME280;865;53.672;10.250;2022-07-23T04:08:17;101295.63;;;14.42;89.82
1736;BME280;865;53.672;10.250;2022-07-23T04:10:43;101287.97;;;14.34;89.67
1736;BME280;865;53.672;10.250;2022-07-23T04:13:10;101292.97;;;14.43;90.20
1736;BME280;865;53.672;10.250;2022-07-23T04:15:36;101295.84;;;14.34;89.66
1736;BME280;865;53.672;10.250;2022-07-23T04:18:04;101301.91;;;14.36;89.90
1736;BME280;865;53.672;10.250;2022-07-23T04:20:31;101297.47;;;14.38;90.32
1736;BME280;865;53.672;10.250;2022-07-23T04:23:02;101303.63;;;14.37;90.18
1736;BME280;865;53.672;10.250;2022-07-23T04:25:30;101303.63;;;14.37;89.86
1736;BME280;865;53.672;10.250;2022-07-23T04:27:57;101303.56;;;14.40;89.66
1736;BME280;865;53.672;10.250;2022-07-23T04:30:23;101301.56;;;14.48;89.52
1736;BME280;865;53.672;10.250;2022-07-23T04:32:50;101308.34;;;14.58;89.42
1736;BME280;865;53.672;10.250;2022-07-23T04:35:16;101308.25;;;14.62;89.06
1736;BME280;865;53.672;10.250;2022-07-23T04:37:42;101301.22;;;14.64;88.67
1736;BME280;865;53.672;10.250;2022-07-23T04:40:09;101302.66;;;14.74;88.42
1736;BME280;865;53.672;10.250;2022-07-23T04:42:38;101300.16;;;14.69;88.40
1736;BME280;865;53.672;10.250;2022-07-23T04:45:05;101300.16;;;14.69;88.10
1736;BME280;865;53.672;10.250;2022-07-23T04:47:38;101303.56;;;14.73;88.22
1736;BME280;865;53.672;10.250;2022-07-23T04:50:05;101297.50;;;14.71;88.22
1736;BME280;865;53.672;10.250;2022-07-23T04:52:31;101299.25;;;14.70;88.02
1736;BME280;865;53.672;10.250;2022-07-23T04:54:58;101300.94;;;14.73;87.46
1736;BME280;865;53.672;10.250;2022-07-23T04:57:24;101307.22;;;14.67;87.81
1736;BME280;865;53.672;10.250;2022-07-23T04:59:51;101302.91;;;14.65;88.23
1736;BME280;865;53.672;10.250;2022-07-23T05:02:17;101298.50;;;14.67;88.22
1736;BME280;865;53.672;10.250;2022-07-23T05:04:43;101300.22;;;14.66;87.75
1736;BME280;865;53.672;10.250;2022-07-23T05:07:10;101304.53;;;14.69;86.94
1736;BME280;865;53.672;10.250;2022-07-23T05:09:36;101305.16;;;14.78;87.58
1736;BME280;865;53.672;10.250;2022-07-23T05:12:03;101306.03;;;14.79;86.96
1736;BME280;865;53.672;10.250;2022-07-23T05:14:29;101306.22;;;14.71;87.40
1736;BME280;865;53.672;10.250;2022-07-23T05:16:56;101311.81;;;14.59;87.55
1736;BME280;865;53.672;10.250;2022-07-23T05:19:22;101309.31;;;14.54;88.05
1736;BME280;865;53.672;10.250;2022-07-23T05:21:50;101313.63;;;14.57;88.52
1736;BME280;865;53.672;10.250;2022-07-23T05:24:17;101313.91;;;14.45;87.83
1736;BME280;865;53.672;10.250;2022-07-23T05:26:43;101326.03;;;14.52;88.71
1736;BME280;865;53.672;10.250;2022-07-23T05:29:09;101315.59;;;14.49;88.93
1736;BME280;865;53.672;10.250;2022-07-23T05:31:36;101319.78;;;14.56;88.87
1736;BME280;865;53.672;10.250;2022-07-23T05:34:02;101309.38;;;14.51;89.16
1736;BME280;865;53.672;10.250;2022-07-23T05:36:31;101310.22;;;14.53;90.41
1736;BME280;865;53.672;10.250;2022-07-23T05:38:58;101316.31;;;14.54;90.11
1736;BME280;865;53.672;10.250;2022-07-23T05:41:25;101320.09;;;14.44;89.54
1736;BME280;865;53.672;10.250;2022-07-23T05:43:51;101326.97;;;14.48;89.51
1736;BME280;865;53.672;10.250;2022-07-23T05:46:18;101319.81;;;14.54;89.82
1736;BME280;865;53.672;10.250;2022-07-23T05:48:44;101314.63;;;14.51;89.17
1736;BME280;865;53.672;10.250;2022-07-23T05:51:23;101321.88;;;14.42;88.92
1736;BME280;865;53.672;10.250;2022-07-23T05:53:50;101314.66;;;14.50;89.42
1736;BME280;865;53.672;10.250;2022-07-23T05:56:17;101324.19;;;14.55;90.00
1736;BME280;865;53.672;10.250;2022-07-23T05:58:44;101334.50;;;14.62;90.00
1736;BME280;865;53.672;10.250;2022-07-23T06:01:11;101325.03;;;14.56;89.48
1736;BME280;865;53.672;10.250;2022-07-23T06:03:38;101322.38;;;14.57;88.33
1736;BME280;865;53.672;10.250;2022-07-23T06:06:05;101323.66;;;14.74;88.37
1736;BME280;865;53.672;10.250;2022-07-23T06:08:32;101317.31;;;14.82;88.00
1736;BME280;865;53.672;10.250;2022-07-23T06:10:58;101314.03;;;15.06;86.25
1736;BME280;865;53.672;10.250;2022-07-23T06:13:25;101315.81;;;15.03;85.81
1736;BME280;865;53.672;10.250;2022-07-23T06:15:51;101317.63;;;15.01;85.46
1736;BME280;865;53.672;10.250;2022-07-23T06:18:18;101319.47;;;14.99;84.98
1736;BME280;865;53.672;10.250;2022-07-23T06:20:44;101317.50;;;15.06;84.47
1736;BME280;865;53.672;10.250;2022-07-23T06:23:15;101316.91;;;14.96;84.11
1736;BME280;865;53.672;10.250;2022-07-23T06:25:42;101319.47;;;14.99;84.62
1736;BME280;865;53.672;10.250;2022-07-23T06:28:08;101315.81;;;15.03;83.83
1736;BME280;865;53.672;10.250;2022-07-23T06:30:35;101311.56;;;14.99;83.36
1736;BME280;865;53.672;10.250;2022-07-23T06:33:01;101316.66;;;15.06;83.50
1736;BME280;865;53.672;10.250;2022-07-23T06:35:28;101316.47;;;15.12;82.86
1736;BME280;865;53.672;10.250;2022-07-23T06:37:54;101317.44;;;15.08;83.07
1736;BME280;865;53.672;10.250;2022-07-23T06:40:21;101320.50;;;15.23;83.75
1736;BME280;865;53.672;10.250;2022-07-23T06:42:47;101309.81;;;15.30;82.90
1736;BME280;865;53.672;10.250;2022-07-23T06:45:14;101319.97;;;15.40;82.09
1736;BME280;865;53.672;10.250;2022-07-23T06:47:40;101317.50;;;15.64;81.37
1736;BME280;865;53.672;10.250;2022-07-23T06:50:08;101314.50;;;15.76;80.75
1736;BME280;865;53.672;10.250;2022-07-23T06:52:34;101313.22;;;15.89;80.89
1736;BME280;865;53.672;10.250;2022-07-23T06:55:07;101316.66;;;15.91;79.88
1736;BME280;865;53.672;10.250;2022-07-23T06:57:34;101319.00;;;15.72;79.21
1736;BME280;865;53.672;10.250;2022-07-23T07:00:00;101319.84;;;15.75;79.40
1736;BME280;865;53.672;10.250;2022-07-23T07:02:27;101322.47;;;15.75;78.76
1736;BME280;865;53.672;10.250;2022-07-23T07:04:53;101329.63;;;15.69;79.29
1736;BME280;865;53.672;10.250;2022-07-23T07:07:19;101329.59;;;15.71;79.06
1736;BME280;865;53.672;10.250;2022-07-23T07:09:46;101324.84;;;15.82;79.76
1736;BME280;865;53.672;10.250;2022-07-23T07:12:13;101334.31;;;15.58;79.97
1736;BME280;865;53.672;10.250;2022-07-23T07:14:40;101330.06;;;15.56;80.24
1736;BME280;865;53.672;10.250;2022-07-23T07:17:06;101343.69;;;15.67;81.01
1736;BME280;865;53.672;10.250;2022-07-23T07:19:33;101345.00;;;15.83;80.31
1736;BME280;865;53.672;10.250;2022-07-23T07:21:59;101344.63;;;15.94;79.33
1736;BME280;865;53.672;10.250;2022-07-23T07:24:25;101342.69;;;16.01;78.52
1736;BME280;865;53.672;10.250;2022-07-23T07:26:58;101339.97;;;16.02;78.36
1736;BME280;865;53.672;10.250;2022-07-23T07:29:25;101339.22;;;16.25;77.68
1736;BME280;865;53.672;10.250;2022-07-23T07:31:51;101339.34;;;16.22;78.18
1736;BME280;865;53.672;10.250;2022-07-23T07:34:18;101341.66;;;16.31;78.29
1736;BME280;865;53.672;10.250;2022-07-23T07:36:45;101337.56;;;15.96;77.72
1736;BME280;865;53.672;10.250;2022-07-23T07:39:11;101341.53;;;16.09;78.88
1736;BME280;865;53.672;10.250;2022-07-23T07:41:38;101349.78;;;16.24;79.61
1736;BME280;865;53.672;10.250;2022-07-23T07:44:04;101339.84;;;16.07;77.90
1736;BME280;865;53.672;10.250;2022-07-23T07:46:31;101341.88;;;15.99;79.31
1736;BME280;865;53.672;10.250;2022-07-23T07:48:57;101357.00;;;15.92;80.05
1736;BME280;865;53.672;10.250;2022-07-23T07:51:24;101361.06;;;15.74;76.80
1736;BME280;865;53.672;10.250;2022-07-23T07:53:51;101350.06;;;15.60;77.91
1736;BME280;865;53.672;10.250;2022-07-23T07:56:18;101351.50;;;15.71;79.62
1736;BME280;865;53.672;10.250;2022-07-23T07:58:45;101351.88;;;15.87;79.85
1736;BME280;865;53.672;10.250;2022-07-23T08:01:11;101341.22;;;15.92;79.62
1736;BME280;865;53.672;10.250;2022-07-23T08:03:37;101351.56;;;15.97;80.73
1736;BME280;865;53.672;10.250;2022-07-23T08:06:05;101349.84;;;16.22;79.04
1736;BME280;865;53.672;10.250;2022-07-23T08:08:31;101343.75;;;16.22;79.37
1736;BME280;865;53.672;10.250;2022-07-23T08:10:58;101343.63;;;16.25;79.94
1736;BME280;865;53.672;10.250;2022-07-23T08:13:24;101345.69;;;16.15;79.76
1736;BME280;865;53.672;10.250;2022-07-23T08:15:50;101350.69;;;16.24;79.37
1736;BME280;865;53.672;10.250;2022-07-23T08:18:19;101345.69;;;16.41;78.98
1736;BME280;865;53.672;10.250;2022-07-23T08:20:45;101346.28;;;16.50;77.11
1736;BME280;865;53.672;10.250;2022-07-23T08:23:12;101347.38;;;16.69;77.33
1736;BME280;865;53.672;10.250;2022-07-23T08:25:41;101341.25;;;16.69;75.28
1736;BME280;865;53.672;10.250;2022-07-23T08:28:11;101343.63;;;16.76;75.45
1736;BME280;865;53.672;10.250;2022-07-23T08:30:39;101340.72;;;16.84;74.75
1736;BME280;865;53.672;10.250;2022-07-23T08:33:08;101346.19;;;17.26;75.09
1736;BME280;865;53.672;10.250;2022-07-23T08:35:56;101346.06;;;17.29;74.21
1736;BME280;865;53.672;10.250;2022-07-23T08:38:23;101346.19;;;17.26;74.44
1736;BME280;865;53.672;10.250;2022-07-23T08:40:53;101340.66;;;17.09;74.43
1736;BME280;865;53.672;10.250;2022-07-23T08:43:22;101341.34;;;16.91;75.18
1736;BME280;865;53.672;10.250;2022-07-23T08:45:51;101351.34;;;16.56;76.05
1736;BME280;865;53.672;10.250;2022-07-23T08:48:23;101349.63;;;16.55;77.20
1736;BME280;865;53.672;10.250;2022-07-23T08:50:55;101353.31;;;16.76;78.78
1736;BME280;865;53.672;10.250;2022-07-23T08:53:25;101344.34;;;17.05;78.38
1736;BME280;865;53.672;10.250;2022-07-23T08:55:54;101346.25;;;17.01;75.73
1736;BME280;865;53.672;10.250;2022-07-23T08:58:22;101350.41;;;17.07;76.91
1736;BME280;865;53.672;10.250;2022-07-23T09:00:54;101355.78;;;17.51;76.00
1736;BME280;865;53.672;10.250;2022-07-23T09:03:25;101348.03;;;17.70;72.89
1736;BME280;865;53.672;10.250;2022-07-23T09:05:52;101356.38;;;17.58;72.07
1736;BME280;865;53.672;10.250;2022-07-23T09:08:21;101361.78;;;17.54;72.28
1736;BME280;865;53.672;10.250;2022-07-23T09:10:58;101355.69;;;17.30;72.94
1736;BME280;865;53.672;10.250;2022-07-23T09:15:58;101356.09;;;17.20;73.02
1736;BME280;865;53.672;10.250;2022-07-23T09:18:46;101358.31;;;17.07;72.85
1736;BME280;865;53.672;10.250;2022-07-23T09:23:51;101364.78;;;17.22;74.07
1736;BME280;865;53.672;10.250;2022-07-23T09:29:17;101362.34;;;17.63;73.04
1736;BME280;865;53.672;10.250;2022-07-23T09:31:52;101357.53;;;17.52;72.57
1736;BME280;865;53.672;10.250;2022-07-23T09:34:27;101352.91;;;17.57;72.29
1736;BME280;865;53.672;10.250;2022-07-23T09:37:14;101356.25;;;17.39;72.12
1736;BME280;865;53.672;10.250;2022-07-23T09:39:42;101362.75;;;17.30;71.70
1736;BME280;865;53.672;10.250;2022-07-23T09:42:25;101364.88;;;17.20;74.42
1736;BME280;865;53.672;10.250;2022-07-23T09:44:54;101362.50;;;17.13;73.93
1736;BME280;865;53.672;10.250;2022-07-23T09:47:22;101366.91;;;17.36;72.37
1736;BME280;865;53.672;10.250;2022-07-23T09:52:27;101356.13;;;17.42;71.85
1736;BME280;865;53.672;10.250;2022-07-23T09:55:04;101354.94;;;17.72;71.51
1736;BME280;865;53.672;10.250;2022-07-23T09:57:32;101348.06;;;17.68;70.09
1736;BME280;865;53.672;10.250;2022-07-23T10:00:04;101351.41;;;17.73;70.01
1736;BME280;865;53.672;10.250;2022-07-23T10:02:33;101353.94;;;17.53;70.62
1736;BME280;865;53.672;10.250;2022-07-23T10:05:01;101358.63;;;17.23;72.09
1736;BME280;865;53.672;10.250;2022-07-23T10:07:32;101361.66;;;17.12;72.84
1736;BME280;865;53.672;10.250;2022-07-23T10:10:00;101357.63;;;16.78;73.08
1736;BME280;865;53.672;10.250;2022-07-23T10:12:28;101373.88;;;16.64;75.34
1736;BME280;865;53.672;10.250;2022-07-23T10:15:04;101363.88;;;16.23;77.92
1736;BME280;865;53.672;10.250;2022-07-23T10:17:33;101376.81;;;16.02;78.70
1736;BME280;865;53.672;10.250;2022-07-23T10:20:01;101378.81;;;16.22;79.79
1736;BME280;865;53.672;10.250;2022-07-23T10:22:34;101384.81;;;16.27;78.19
1736;BME280;865;53.672;10.250;2022-07-23T10:25:22;101388.19;;;16.04;76.37
1736;BME280;865;53.672;10.250;2022-07-23T10:28:02;101383.22;;;16.22;77.10
1736;BME280;865;53.672;10.250;2022-07-23T10:33:33;101384.09;;;16.22;73.43
1736;BME280;865;53.672;10.250;2022-07-23T10:36:20;101387.78;;;16.43;71.69
1736;BME280;865;53.672;10.250;2022-07-23T10:38:54;101387.78;;;16.68;71.45
1736;BME280;865;53.672;10.250;2022-07-23T10:41:32;101385.09;;;16.70;68.42
1736;BME280;865;53.672;10.250;2022-07-23T10:44:14;101386.81;;;16.71;67.94
1736;BME280;865;53.672;10.250;2022-07-23T10:46:59;101387.38;;;16.80;68.89
1736;BME280;865;53.672;10.250;2022-07-23T10:49:40;101401.59;;;16.76;68.61
1736;BME280;865;53.672;10.250;2022-07-23T10:54:41;101393.06;;;17.42;69.09
1736;BME280;865;53.672;10.250;2022-07-23T10:57:09;101393.78;;;17.69;69.40
1736;BME280;865;53.672;10.250;2022-07-23T11:02:30;101399.44;;;17.36;68.76
1736;BME280;865;53.672;10.250;2022-07-23T11:05:03;101399.97;;;17.22;70.63
1736;BME280;865;53.672;10.250;2022-07-23T11:07:30;101409.59;;;16.98;71.01
1736;BME280;865;53.672;10.250;2022-07-23T11:09:56;101406.75;;;16.79;72.11
1736;BME280;865;53.672;10.250;2022-07-23T11:15:12;101403.28;;;16.51;73.70
1736;BME280;865;53.672;10.250;2022-07-23T11:17:59;101406.28;;;16.67;74.51
1736;BME280;865;53.672;10.250;2022-07-23T11:20:27;101410.19;;;16.81;75.23
1736;BME280;865;53.672;10.250;2022-07-23T11:22:58;101408.63;;;17.01;74.38
1736;BME280;865;53.672;10.250;2022-07-23T11:27:51;101394.31;;;17.79;71.44
1736;BME280;865;53.672;10.250;2022-07-23T11:32:54;101395.69;;;17.42;72.27
1736;BME280;865;53.672;10.250;2022-07-23T11:35:45;101395.06;;;17.59;71.96
1736;BME280;865;53.672;10.250;2022-07-23T11:38:16;101400.81;;;17.46;71.12
1736;BME280;865;53.672;10.250;2022-07-23T11:40:54;101400.38;;;17.57;71.03
1736;BME280;865;53.672;10.250;2022-07-23T11:43:21;101386.56;;;17.74;70.00
1736;BME280;865;53.672;10.250;2022-07-23T11:45:51;101392.25;;;18.09;69.14
1736;BME280;865;53.672;10.250;2022-07-23T11:48:23;101388.50;;;18.35;67.74
1736;BME280;865;53.672;10.250;2022-07-23T11:50:51;101388.03;;;18.25;68.36
1736;BME280;865;53.672;10.250;2022-07-23T11:53:28;101395.31;;;17.98;66.95
1736;BME280;865;53.672;10.250;2022-07-23T11:56:06;101385.97;;;18.11;68.34
1736;BME280;865;53.672;10.250;2022-07-23T11:58:32;101400.34;;;18.04;68.52
1736;BME280;865;53.672;10.250;2022-07-23T12:00:59;101405.75;;;18.01;69.17
1736;BME280;865;53.672;10.250;2022-07-23T12:03:26;101398.69;;;17.80;67.37
1736;BME280;865;53.672;10.250;2022-07-23T12:05:57;101404.16;;;17.97;67.28
1736;BME280;865;53.672;10.250;2022-07-23T12:08:25;101396.78;;;18.27;67.68
1736;BME280;865;53.672;10.250;2022-07-23T12:10:51;101400.16;;;18.09;64.36
1736;BME280;865;53.672;10.250;2022-07-23T12:13:20;101402.09;;;18.26;64.23
1736;BME280;865;53.672;10.250;2022-07-23T12:15:50;101388.94;;;18.66;64.30
1736;BME280;865;53.672;10.250;2022-07-23T12:18:25;101398.13;;;18.58;63.31
1736;BME280;865;53.672;10.250;2022-07-23T12:20:54;101394.56;;;18.16;64.65
1736;BME280;865;53.672;10.250;2022-07-23T12:23:22;101395.41;;;18.17;64.28
1736;BME280;865;53.672;10.250;2022-07-23T12:25:50;101392.28;;;18.50;64.44
1736;BME280;865;53.672;10.250;2022-07-23T12:28:29;101386.31;;;18.87;62.11
1736;BME280;865;53.672;10.250;2022-07-23T12:30:57;101394.78;;;18.75;62.83
1736;BME280;865;53.672;10.250;2022-07-23T12:33:27;101395.56;;;18.56;64.00
1736;BME280;865;53.672;10.250;2022-07-23T12:35:55;101392.03;;;18.56;64.37
1736;BME280;865;53.672;10.250;2022-07-23T12:38:23;101388.81;;;18.90;62.67
1736;BME280;865;53.672;10.250;2022-07-23T12:40:56;101395.81;;;19.11;61.10
1736;BME280;865;53.672;10.250;2022-07-23T12:43:29;101392.88;;;19.18;60.19
1736;BME280;865;53.672;10.250;2022-07-23T12:46:02;101397.66;;;19.09;58.99
1736;BME280;865;53.672;10.250;2022-07-23T12:51:22;101392.84;;;18.99;62.54
1736;BME280;865;53.672;10.250;2022-07-23T12:54:11;101395.88;;;19.10;62.36
1736;BME280;865;53.672;10.250;2022-07-23T12:56:39;101401.06;;;18.93;60.58
1736;BME280;865;53.672;10.250;2022-07-23T12:59:14;101392.22;;;19.12;60.92
1736;BME280;865;53.672;10.250;2022-07-23T13:01:45;101391.34;;;18.93;59.31
1736;BME280;865;53.672;10.250;2022-07-23T13:04:21;101403.94;;;18.66;59.76
1736;BME280;865;53.672;10.250;2022-07-23T13:06:53;101406.13;;;18.77;60.93
1736;BME280;865;53.672;10.250;2022-07-23T13:09:23;101414.50;;;18.66;60.91
1736;BME280;865;53.672;10.250;2022-07-23T13:11:51;101413.44;;;18.50;61.54
1736;BME280;865;53.672;10.250;2022-07-23T13:14:19;101421.78;;;18.18;59.61
1736;BME280;865;53.672;10.250;2022-07-23T13:16:48;101415.97;;;18.31;59.07
1736;BME280;865;53.672;10.250;2022-07-23T13:19:16;101425.22;;;18.41;59.59
1736;BME280;865;53.672;10.250;2022-07-23T13:21:45;101424.41;;;18.18;59.21
1736;BME280;865;53.672;10.250;2022-07-23T13:24:12;101421.78;;;18.18;60.51
1736;BME280;865;53.672;10.250;2022-07-23T13:26:39;101421.31;;;18.29;60.17
1736;BME280;865;53.672;10.250;2022-07-23T13:29:06;101419.09;;;18.40;60.44
1736;BME280;865;53.672;10.250;2022-07-23T13:31:36;101419.78;;;18.45;59.54
1736;BME280;865;53.672;10.250;2022-07-23T13:34:05;101427.03;;;18.40;60.45
1736;BME280;865;53.672;10.250;2022-07-23T13:36:33;101427.44;;;18.52;59.80
1736;BME280;865;53.672;10.250;2022-07-23T13:38:59;101428.16;;;18.55;60.75
1736;BME280;865;53.672;10.250;2022-07-23T13:41:26;101439.25;;;18.43;60.36
1736;BME280;865;53.672;10.250;2022-07-23T13:43:53;101444.09;;;18.32;60.84
1736;BME280;865;53.672;10.250;2022-07-23T13:46:20;101440.38;;;18.15;60.54